sensor_id;sensor_type;location;lat;lon;timestamp;pressure;altitude;pressure_sealevel;temperature;humidity
74437;BME280;62868;52.360;30.424;2023-03-01T00:01:26;1030.4;;;2.4;52.9
74437;BME280;62868;52.360;30.424;2023-03-01T00:06:39;1030.3;;;2.4;53
74437;BME280;62868;52.360;30.424;2023-03-01T00:11:45;1030.2;;;2.4;53.1
74437;BME280;62868;52.360;30.424;2023-03-01T00:17:01;1030;;;2.5;53.1
74437;BME280;62868;52.360;30.424;2023-03-01T00:21:45;1029.9;;;2.5;53.2
74437;BME280;62868;52.360;30.424;2023-03-01T00:26:39;1029.8;;;2.5;53.3
74437;BME280;62868;52.360;30.424;2023-03-01T00:32:01;1029.8;;;2.5;53.3
74437;BME280;62868;52.360;30.424;2023-03-01T00:36:45;1029.6;;;2.6;53.4
74437;BME280;62868;52.360;30.424;2023-03-01T00:42:01;1029.5;;;2.6;53.5
74437;BME280;62868;52.360;30.424;2023-03-01T00:46:26;1029.5;;;2.5;53.6
74437;BME280;62868;52.360;30.424;2023-03-01T00:51:12;1029.5;;;2.5;53.7
74437;BME280;62868;52.360;30.424;2023-03-01T00:56:33;1029.4;;;2.6;53.8
74437;BME280;62868;52.360;30.424;2023-03-01T01:01:43;1029.4;;;2.6;53.8
74437;BME280;62868;52.360;30.424;2023-03-01T01:07:01;1029.3;;;2.6;53.9
74437;BME280;62868;52.360;30.424;2023-03-01T01:12:01;1029.2;;;2.6;54
74437;BME280;62868;52.360;30.424;2023-03-01T01:16:39;1029.2;;;2.6;54.1
74437;BME280;62868;52.360;30.424;2023-03-01T01:21:12;1029.2;;;2.6;54.2
74437;BME280;62868;52.360;30.424;2023-03-01T01:26:24;1029.1;;;2.6;54.4
74437;BME280;62868;52.360;30.424;2023-03-01T01:31:43;1029;;;2.6;54.4
74437;BME280;62868;52.360;30.424;2023-03-01T01:37:01;1029;;;2.7;54.5
74437;BME280;62868;52.360;30.424;2023-03-01T01:41:24;1028.9;;;2.7;54.6
74437;BME280;62868;52.360;30.424;2023-03-01T01:46:40;1028.9;;;2.8;54.6
74437;BME280;62868;52.360;30.424;2023-03-01T01:51:24;1028.8;;;2.8;54.7
74437;BME280;62868;52.360;30.424;2023-03-01T01:56:46;1028.8;;;2.7;54.8
74437;BME280;62868;52.360;30.424;2023-03-01T02:02:02;1028.8;;;2.8;54.9
74437;BME280;62868;52.360;30.424;2023-03-01T02:06:26;1028.8;;;2.8;54.9
74437;BME280;62868;52.360;30.424;2023-03-01T02:11:11;1028.8;;;2.8;55
74437;BME280;62868;52.360;30.424;2023-03-01T02:16:25;1028.7;;;2.8;55
74437;BME280;62868;52.360;30.424;2023-03-01T02:21:30;1028.8;;;2.8;55.1
74437;BME280;62868;52.360;30.424;2023-03-01T02:27:01;1028.7;;;2.8;55.2
74437;BME280;62868;52.360;30.424;2023-03-01T02:31:39;1028.6;;;2.8;55.2
74437;BME280;62868;52.360;30.424;2023-03-01T02:36:34;1028.6;;;2.8;55.2
74437;BME280;62868;52.360;30.424;2023-03-01T02:41:11;1028.5;;;2.9;55.2
74437;BME280;62868;52.360;30.424;2023-03-01T02:47:02;1028.5;;;2.9;55.3
74437;BME280;62868;52.360;30.424;2023-03-01T02:52:06;1028.4;;;2.9;55.4
74437;BME280;62868;52.360;30.424;2023-03-01T02:56:11;1028.5;;;2.8;55.5
74437;BME280;62868;52.360;30.424;2023-03-01T03:01:11;1028.4;;;2.8;55.6
74437;BME280;62868;52.360;30.424;2023-03-01T03:06:48;1028.3;;;2.8;55.7
74437;BME280;62868;52.360;30.424;2023-03-01T03:11:45;1028.3;;;2.8;55.8
74437;BME280;62868;52.360;30.424;2023-03-01T03:17:01;1028.2;;;2.7;55.9
74437;BME280;62868;52.360;30.424;2023-03-01T03:21:25;1028.2;;;2.8;55.9
74437;BME280;62868;52.360;30.424;2023-03-01T03:26:25;1028.2;;;2.8;55.9
74437;BME280;62868;52.360;30.424;2023-03-01T03:31:33;1028.2;;;2.8;56
74437;BME280;62868;52.360;30.424;2023-03-01T03:36:45;1028.2;;;2.8;56.1
74437;BME280;62868;52.360;30.424;2023-03-01T03:42:01;1028.2;;;2.8;56.2
74437;BME280;62868;52.360;30.424;2023-03-01T03:46:25;1028.2;;;2.9;56.3
74437;BME280;62868;52.360;30.424;2023-03-01T03:51:37;1028.1;;;2.9;56.3
74437;BME280;62868;52.360;30.424;2023-03-01T03:56:11;1028.2;;;2.9;56.4
74437;BME280;62868;52.360;30.424;2023-03-01T04:01:43;1028.3;;;2.9;56.4
74437;BME280;62868;52.360;30.424;2023-03-01T04:06:59;1028.2;;;2.9;56.6
74437;BME280;62868;52.360;30.424;2023-03-01T04:11:25;1028.3;;;3;56.6
74437;BME280;62868;52.360;30.424;2023-03-01T04:16:25;1028.2;;;3;56.7
74437;BME280;62868;52.360;30.424;2023-03-01T04:21:11;1028.2;;;3.1;56.8
74437;BME280;62868;52.360;30.424;2023-03-01T04:26:45;1028.2;;;3.1;56.9
74437;BME280;62868;52.360;30.424;2023-03-01T04:32:01;1028.2;;;3.1;56.9
74437;BME280;62868;52.360;30.424;2023-03-01T04:36:24;1028.2;;;3.1;57
74437;BME280;62868;52.360;30.424;2023-03-01T04:41:25;1028.2;;;3.1;57.1
74437;BME280;62868;52.360;30.424;2023-03-01T04:46:23;1028.2;;;3.1;57.1
74437;BME280;62868;52.360;30.424;2023-03-01T04:51:45;1028.2;;;3.1;57.2
74437;BME280;62868;52.360;30.424;2023-03-01T04:56:59;1028.3;;;3.2;57.3
74437;BME280;62868;52.360;30.424;2023-03-01T05:01:12;1028.3;;;3.2;57.4
74437;BME280;62868;52.360;30.424;2023-03-01T05:06:12;1028.3;;;3.2;57.5
74437;BME280;62868;52.360;30.424;2023-03-01T05:11:37;1028.3;;;3.3;57.5
74437;BME280;62868;52.360;30.424;2023-03-01T05:16:43;1028.3;;;3.3;57.5
74437;BME280;62868;52.360;30.424;2023-03-01T05:21:57;1028.3;;;3.4;57.6
74437;BME280;62868;52.360;30.424;2023-03-01T05:26:31;1028.3;;;3.4;57.7
74437;BME280;62868;52.360;30.424;2023-03-01T05:31:37;1028.4;;;3.4;57.7
74437;BME280;62868;52.360;30.424;2023-03-01T05:36:21;1028.4;;;3.5;57.8
74437;BME280;62868;52.360;30.424;2023-03-01T05:41:43;1028.5;;;3.5;57.9
74437;BME280;62868;52.360;30.424;2023-03-01T05:47:01;1028.5;;;3.5;57.9
74437;BME280;62868;52.360;30.424;2023-03-01T05:51:35;1028.5;;;3.6;57.9
74437;BME280;62868;52.360;30.424;2023-03-01T05:56:35;1028.5;;;3.6;57.9
74437;BME280;62868;52.360;30.424;2023-03-01T06:01:11;1028.6;;;3.7;58
74437;BME280;62868;52.360;30.424;2023-03-01T06:06:43;1028.6;;;3.8;57.9
74437;BME280;62868;52.360;30.424;2023-03-01T06:12:01;1028.8;;;3.9;57.9
74437;BME280;62868;52.360;30.424;2023-03-01T06:16:45;1029;;;4;57.9
74437;BME280;62868;52.360;30.424;2023-03-01T06:21:37;1029.5;;;3.9;58.1
74437;BME280;62868;52.360;30.424;2023-03-01T06:26:11;1029.5;;;3.6;58.8
74437;BME280;62868;52.360;30.424;2023-03-01T06:31:21;1029.5;;;3.6;58.7
74437;BME280;62868;52.360;30.424;2023-03-01T06:37:01;1029.5;;;4;58.4
74437;BME280;62868;52.360;30.424;2023-03-01T06:41:43;1029.5;;;4.2;58.2
74437;BME280;62868;52.360;30.424;2023-03-01T06:46:38;1029.6;;;4.3;58.4
74437;BME280;62868;52.360;30.424;2023-03-01T06:51:23;1029.6;;;4.3;58.6
74437;BME280;62868;52.360;30.424;2023-03-01T06:56:46;1029.7;;;4.3;58.6
74437;BME280;62868;52.360;30.424;2023-03-01T07:02:01;1029.7;;;4.3;58.6
74437;BME280;62868;52.360;30.424;2023-03-01T07:06:47;1029.9;;;4.4;58.5
74437;BME280;62868;52.360;30.424;2023-03-01T07:11:37;1030;;;4.4;58.4
74437;BME280;62868;52.360;30.424;2023-03-01T07:16:39;1030;;;4.4;58.2
74437;BME280;62868;52.360;30.424;2023-03-01T07:21:49;1030.1;;;4.4;58
74437;BME280;62868;52.360;30.424;2023-03-01T07:27:05;1030.1;;;4.5;57.7
74437;BME280;62868;52.360;30.424;2023-03-01T07:31:49;1030.2;;;4.6;57.4
74437;BME280;62868;52.360;30.424;2023-03-01T07:36:53;1030.3;;;4.7;57
74437;BME280;62868;52.360;30.424;2023-03-01T07:41:39;1030.3;;;4.6;56.7
74437;BME280;62868;52.360;30.424;2023-03-01T07:46:49;1030.3;;;4.5;56.3
74437;BME280;62868;52.360;30.424;2023-03-01T07:52:05;1030.3;;;4.7;55.9
74437;BME280;62868;52.360;30.424;2023-03-01T07:56:49;1030.3;;;5;55.3
74437;BME280;62868;52.360;30.424;2023-03-01T08:01:37;1030.3;;;5.2;54.8
74437;BME280;62868;52.360;30.424;2023-03-01T08:06:21;1030.3;;;5.3;54.4
74437;BME280;62868;52.360;30.424;2023-03-01T08:11:47;1030.3;;;5.7;54
74437;BME280;62868;52.360;30.424;2023-03-01T08:17:03;1030.4;;;6.1;53.5
74437;BME280;62868;52.360;30.424;2023-03-01T08:21:35;1030.4;;;6.6;53
74437;BME280;62868;52.360;30.424;2023-03-01T08:26:36;1030.4;;;7.1;52.6
74437;BME280;62868;52.360;30.424;2023-03-01T08:31:13;1030.4;;;7.3;52.3
74437;BME280;62868;52.360;30.424;2023-03-01T08:36:49;1030.5;;;7.2;52
74437;BME280;62868;52.360;30.424;2023-03-01T08:42:03;1030.5;;;7.1;51.7
74437;BME280;62868;52.360;30.424;2023-03-01T08:46:50;1030.5;;;7.2;51.4
74437;BME280;62868;52.360;30.424;2023-03-01T08:51:37;1030.6;;;7.1;51.3
74437;BME280;62868;52.360;30.424;2023-03-01T08:56:11;1030.6;;;6.8;51.1
74437;BME280;62868;52.360;30.424;2023-03-01T09:01:47;1030.6;;;6.5;50.6
74437;BME280;62868;52.360;30.424;2023-03-01T09:07:03;1030.6;;;6.4;50.6
74437;BME280;62868;52.360;30.424;2023-03-01T09:11:47;1030.7;;;6.1;50.5
74437;BME280;62868;52.360;30.424;2023-03-01T09:16:37;1030.7;;;6;50.2
74437;BME280;62868;52.360;30.424;2023-03-01T09:21:25;1030.7;;;5.9;49.9
74437;BME280;62868;52.360;30.424;2023-03-01T09:27:03;1030.8;;;5.7;49.5
74437;BME280;62868;52.360;30.424;2023-03-01T09:31:49;1030.8;;;5.8;49.4
74437;BME280;62868;52.360;30.424;2023-03-01T09:36:12;1030.9;;;6;48.8
74437;BME280;62868;52.360;30.424;2023-03-01T09:41:54;1030.8;;;6.2;48.4
74437;BME280;62868;52.360;30.424;2023-03-01T09:46:22;1030.8;;;6.2;47.9
74437;BME280;62868;52.360;30.424;2023-03-01T09:52:03;1030.7;;;6.3;47.9
74437;BME280;62868;52.360;30.424;2023-03-01T09:56:53;1030.7;;;6.6;47.8
74437;BME280;62868;52.360;30.424;2023-03-01T10:01:37;1030.7;;;7.1;47.5
74437;BME280;62868;52.360;30.424;2023-03-01T10:06:35;1030.7;;;7.4;47.2
74437;BME280;62868;52.360;30.424;2023-03-01T10:11:22;1030.7;;;7.5;47.1
74437;BME280;62868;52.360;30.424;2023-03-01T10:17:02;1030.7;;;7.4;46.9
74437;BME280;62868;52.360;30.424;2023-03-01T10:21:49;1030.7;;;7.5;46.6
74437;BME280;62868;52.360;30.424;2023-03-01T10:26:40;1030.7;;;7.5;45.5
74437;BME280;62868;52.360;30.424;2023-03-01T10:32:01;1030.7;;;7.4;45.2
74437;BME280;62868;52.360;30.424;2023-03-01T10:36:11;1030.7;;;7.8;44.8
74437;BME280;62868;52.360;30.424;2023-03-01T10:42:02;1030.6;;;8.1;44.4
74437;BME280;62868;52.360;30.424;2023-03-01T10:46:47;1030.5;;;8.2;44.3
74437;BME280;62868;52.360;30.424;2023-03-01T10:51:33;1030.6;;;8.5;44.3
74437;BME280;62868;52.360;30.424;2023-03-01T10:57:02;1030.5;;;9.1;44
74437;BME280;62868;52.360;30.424;2023-03-01T11:01:25;1030.5;;;9.6;43.6
74437;BME280;62868;52.360;30.424;2023-03-01T11:07:02;1030.5;;;10;43.4
74437;BME280;62868;52.360;30.424;2023-03-01T11:11:50;1030.5;;;10.5;43.1
74437;BME280;62868;52.360;30.424;2023-03-01T11:16:36;1030.5;;;10.4;42.7
74437;BME280;62868;52.360;30.424;2023-03-01T11:22:02;1030.4;;;9.8;43.1
74437;BME280;62868;52.360;30.424;2023-03-01T11:26:11;1030.5;;;9.5;43.3
74437;BME280;62868;52.360;30.424;2023-03-01T11:32:02;1030.4;;;9.3;43.4
74437;BME280;62868;52.360;30.424;2023-03-01T11:36:46;1030.5;;;9;43.5
74437;BME280;62868;52.360;30.424;2023-03-01T11:41:35;1030.4;;;8.6;43.4
74437;BME280;62868;52.360;30.424;2023-03-01T11:47:07;1030.4;;;8.3;43.3
74437;BME280;62868;52.360;30.424;2023-03-01T11:51:13;1030.4;;;8.6;42.6
74437;BME280;62868;52.360;30.424;2023-03-01T11:57:00;1030.5;;;8.8;42.2
74437;BME280;62868;52.360;30.424;2023-03-01T12:02:07;1030.5;;;9;41.9
74437;BME280;62868;52.360;30.424;2023-03-01T12:06:36;1030.5;;;9;41.9
74437;BME280;62868;52.360;30.424;2023-03-01T12:12:02;1030.5;;;8.9;42
74437;BME280;62868;52.360;30.424;2023-03-01T12:16:15;1030.4;;;9.3;41.6
74437;BME280;62868;52.360;30.424;2023-03-01T12:21:55;1030.4;;;9.7;41.2
74437;BME280;62868;52.360;30.424;2023-03-01T12:26:47;1030.4;;;9.9;41
74437;BME280;62868;52.360;30.424;2023-03-01T12:31:53;1030.4;;;9.9;41.1
74437;BME280;62868;52.360;30.424;2023-03-01T12:37:04;1030.5;;;9.8;41
74437;BME280;62868;52.360;30.424;2023-03-01T12:41:48;1030.5;;;9.6;40.9
74437;BME280;62868;52.360;30.424;2023-03-01T12:47:02;1030.5;;;9.4;40.9
74437;BME280;62868;52.360;30.424;2023-03-01T12:51:44;1030.5;;;9;41.1
74437;BME280;62868;52.360;30.424;2023-03-01T12:56:34;1030.5;;;8.7;41.3
74437;BME280;62868;52.360;30.424;2023-03-01T13:02:03;1030.5;;;8.6;41.4
74437;BME280;62868;52.360;30.424;2023-03-01T13:06:12;1030.5;;;8.4;41.5
74437;BME280;62868;52.360;30.424;2023-03-01T13:12:01;1030.5;;;7.9;41.8
74437;BME280;62868;52.360;30.424;2023-03-01T13:17:01;1030.6;;;7.5;42.1
74437;BME280;62868;52.360;30.424;2023-03-01T13:21:30;1030.6;;;7.1;42.3
74437;BME280;62868;52.360;30.424;2023-03-01T13:27:31;1030.6;;;7;42.4
74437;BME280;62868;52.360;30.424;2023-03-01T13:48:15;1030.5;;;6.7;42.4
74437;BME280;62868;52.360;30.424;2023-03-01T14:08:42;1030.5;;;6;42.4
74437;BME280;62868;52.360;30.424;2023-03-01T14:14:14;1030.4;;;6.1;42.3
74437;BME280;62868;52.360;30.424;2023-03-01T14:18:43;1030.5;;;6.2;42.2
74437;BME280;62868;52.360;30.424;2023-03-01T14:24:16;1030.5;;;6.2;42.1
74437;BME280;62868;52.360;30.424;2023-03-01T14:28:58;1030.4;;;6;42.3
74437;BME280;62868;52.360;30.424;2023-03-01T14:33:33;1030.4;;;6;42.4
74437;BME280;62868;52.360;30.424;2023-03-01T14:39:16;1030.4;;;5.9;42.6
74437;BME280;62868;52.360;30.424;2023-03-01T14:43:44;1030.4;;;5.6;42.8
74437;BME280;62868;52.360;30.424;2023-03-01T14:48:34;1030.4;;;5.4;42.9
74437;BME280;62868;52.360;30.424;2023-03-01T14:53:58;1030.4;;;5.1;43.1
74437;BME280;62868;52.360;30.424;2023-03-01T14:58:22;1030.4;;;5;43.3
74437;BME280;62868;52.360;30.424;2023-03-01T15:04:11;1030.4;;;4.8;43.5
74437;BME280;62868;52.360;30.424;2023-03-01T15:08:32;1030.4;;;4.6;43.7
74437;BME280;62868;52.360;30.424;2023-03-01T15:13:46;1030.4;;;4.5;43.8
74437;BME280;62868;52.360;30.424;2023-03-01T15:18:58;1030.4;;;4.4;43.9
74437;BME280;62868;52.360;30.424;2023-03-01T15:23:23;1030.4;;;4.2;44.1
74437;BME280;62868;52.360;30.424;2023-03-01T15:29:15;1030.4;;;4;44.3
74437;BME280;62868;52.360;30.424;2023-03-01T15:33:44;1030.4;;;3.9;44.4
74437;BME280;62868;52.360;30.424;2023-03-01T15:38:25;1030.4;;;3.8;44.6
74437;BME280;62868;52.360;30.424;2023-03-01T15:43:58;1030.5;;;3.6;44.8
74437;BME280;62868;52.360;30.424;2023-03-01T15:48:34;1030.5;;;3.5;44.9
74437;BME280;62868;52.360;30.424;2023-03-01T15:54:13;1030.6;;;3.4;45.1
74437;BME280;62868;52.360;30.424;2023-03-01T15:58:32;1030.6;;;3.3;45.2
74437;BME280;62868;52.360;30.424;2023-03-01T16:03:32;1030.5;;;3.1;45.4
74437;BME280;62868;52.360;30.424;2023-03-01T16:08:58;1030.5;;;3.1;45.5
74437;BME280;62868;52.360;30.424;2023-03-01T16:13:34;1030.5;;;3;45.7
74437;BME280;62868;52.360;30.424;2023-03-01T16:19:12;1030.5;;;2.9;45.8
74437;BME280;62868;52.360;30.424;2023-03-01T16:23:44;1030.5;;;2.8;46
74437;BME280;62868;52.360;30.424;2023-03-01T16:28:46;1030.4;;;2.7;46.1
74437;BME280;62868;52.360;30.424;2023-03-01T16:33:58;1030.4;;;2.7;46.2
74437;BME280;62868;52.360;30.424;2023-03-01T16:38:22;1030.4;;;2.6;46.3
74437;BME280;62868;52.360;30.424;2023-03-01T16:44:10;1030.4;;;2.6;46.4
74437;BME280;62868;52.360;30.424;2023-03-01T16:48:45;1030.4;;;2.5;46.6
74437;BME280;62868;52.360;30.424;2023-03-01T16:53:22;1030.4;;;2.4;46.6
74437;BME280;62868;52.360;30.424;2023-03-01T16:58:56;1030.4;;;2.3;46.8
74437;BME280;62868;52.360;30.424;2023-03-01T17:03:46;1030.5;;;2.3;47
74437;BME280;62868;52.360;30.424;2023-03-01T17:09:10;1030.5;;;2.3;47
74437;BME280;62868;52.360;30.424;2023-03-01T17:13:44;1030.5;;;2.4;47.1
74437;BME280;62868;52.360;30.424;2023-03-01T17:19:00;1030.5;;;2.6;47.1
74437;BME280;62868;52.360;30.424;2023-03-01T17:24:12;1030.5;;;2.7;47.1
74437;BME280;62868;52.360;30.424;2023-03-01T17:28:23;1030.5;;;2.7;47.1
74437;BME280;62868;52.360;30.424;2023-03-01T17:33:50;1030.5;;;2.8;47.1
74437;BME280;62868;52.360;30.424;2023-03-01T17:38:32;1030.4;;;3;47.1
74437;BME280;62868;52.360;30.424;2023-03-01T17:43:58;1030.4;;;3;47.1
74437;BME280;62868;52.360;30.424;2023-03-01T17:49:12;1030.3;;;3.1;47.2
74437;BME280;62868;52.360;30.424;2023-03-01T17:53:32;1030.2;;;3.1;47.3
74437;BME280;62868;52.360;30.424;2023-03-01T17:59:02;1030.2;;;3;47.4
74437;BME280;62868;52.360;30.424;2023-03-01T18:03:46;1030.3;;;2.9;47.6
74437;BME280;62868;52.360;30.424;2023-03-01T18:09:02;1030.3;;;2.7;47.7
74437;BME280;62868;52.360;30.424;2023-03-01T18:14:02;1030.3;;;2.6;47.8
74437;BME280;62868;52.360;30.424;2023-03-01T18:18:22;1030.4;;;2.7;47.9
74437;BME280;62868;52.360;30.424;2023-03-01T18:24:00;1030.4;;;2.7;47.9
74437;BME280;62868;52.360;30.424;2023-03-01T18:28:46;1030.3;;;2.8;47.8
74437;BME280;62868;52.360;30.424;2023-03-01T18:33:51;1030.4;;;2.7;48
74437;BME280;62868;52.360;30.424;2023-03-01T18:39:14;1030.3;;;2.6;48.1
74437;BME280;62868;52.360;30.424;2023-03-01T18:44:00;1030.3;;;2.5;48.3
74437;BME280;62868;52.360;30.424;2023-03-01T18:48:58;1030.2;;;2.5;48.3
74437;BME280;62868;52.360;30.424;2023-03-01T18:53:32;1030.2;;;2.3;48.4
74437;BME280;62868;52.360;30.424;2023-03-01T18:59:02;1030.3;;;2.2;48.6
74437;BME280;62868;52.360;30.424;2023-03-01T19:04:14;1030.3;;;2.2;48.7
74437;BME280;62868;52.360;30.424;2023-03-01T19:08:34;1030.3;;;2.1;48.8
74437;BME280;62868;52.360;30.424;2023-03-01T19:14:14;1030.3;;;2;49
74437;BME280;62868;52.360;30.424;2023-03-01T19:18:22;1030.3;;;1.9;49
74437;BME280;62868;52.360;30.424;2023-03-01T19:24:02;1030.4;;;1.9;49.1
74437;BME280;62868;52.360;30.424;2023-03-01T19:29:12;1030.4;;;1.8;49.2
74437;BME280;62868;52.360;30.424;2023-03-01T19:33:34;1030.4;;;1.7;49.4
74437;BME280;62868;52.360;30.424;2023-03-01T19:38:58;1030.3;;;1.6;49.5
74437;BME280;62868;52.360;30.424;2023-03-01T19:43:44;1030.2;;;1.6;49.6
74437;BME280;62868;52.360;30.424;2023-03-01T19:48:58;1030.1;;;1.5;49.7
74437;BME280;62868;52.360;30.424;2023-03-01T19:54:12;1030.1;;;1.5;49.8
74437;BME280;62868;52.360;30.424;2023-03-01T19:58:22;1030;;;1.4;49.9
74437;BME280;62868;52.360;30.424;2023-03-01T20:04:00;1030;;;1.4;49.9
74437;BME280;62868;52.360;30.424;2023-03-01T20:08:42;1030;;;1.4;50
74437;BME280;62868;52.360;30.424;2023-03-01T20:14:00;1030.1;;;1.4;50
74437;BME280;62868;52.360;30.424;2023-03-01T20:19:12;1030.1;;;1.4;50.1
74437;BME280;62868;52.360;30.424;2023-03-01T20:23:34;1030.1;;;1.4;50.1
74437;BME280;62868;52.360;30.424;2023-03-01T20:29:02;1030.1;;;1.4;50.2
74437;BME280;62868;52.360;30.424;2023-03-01T20:34:00;1030.1;;;1.4;50.2
74437;BME280;62868;52.360;30.424;2023-03-01T20:39:12;1030;;;1.4;50.2
74437;BME280;62868;52.360;30.424;2023-03-01T20:44:12;1030.1;;;1.4;50.3
74437;BME280;62868;52.360;30.424;2023-03-01T20:48:22;1030;;;1.4;50.4
74437;BME280;62868;52.360;30.424;2023-03-01T20:54:00;1030;;;1.4;50.4
74437;BME280;62868;52.360;30.424;2023-03-01T20:58:22;1030;;;1.4;50.5
74437;BME280;62868;52.360;30.424;2023-03-01T21:04:14;1029.9;;;1.4;50.6
74437;BME280;62868;52.360;30.424;2023-03-01T21:08:44;1029.9;;;1.3;50.7
74437;BME280;62868;52.360;30.424;2023-03-01T21:13:22;1029.9;;;1.2;50.8
74437;BME280;62868;52.360;30.424;2023-03-01T21:18:48;1029.9;;;1.1;50.9
74437;BME280;62868;52.360;30.424;2023-03-01T21:24:00;1029.9;;;1;51.1
74437;BME280;62868;52.360;30.424;2023-03-01T21:29:14;1029.9;;;1;51.1
74437;BME280;62868;52.360;30.424;2023-03-01T21:33:46;1029.9;;;0.9;51.2
74437;BME280;62868;52.360;30.424;2023-03-01T21:38:34;1029.9;;;0.9;51.3
74437;BME280;62868;52.360;30.424;2023-03-01T21:43:46;1030;;;0.8;51.4
74437;BME280;62868;52.360;30.424;2023-03-01T21:49:00;1030;;;0.8;51.5
74437;BME280;62868;52.360;30.424;2023-03-01T21:54:12;1029.9;;;0.8;51.6
74437;BME280;62868;52.360;30.424;2023-03-01T21:58:46;1029.9;;;0.8;51.6
74437;BME280;62868;52.360;30.424;2023-03-01T22:03:22;1029.8;;;0.8;51.7
74437;BME280;62868;52.360;30.424;2023-03-01T22:08:46;1029.8;;;0.8;51.8
74437;BME280;62868;52.360;30.424;2023-03-01T22:13:58;1029.8;;;0.9;51.8
74437;BME280;62868;52.360;30.424;2023-03-01T22:19:12;1029.7;;;0.9;51.8
74437;BME280;62868;52.360;30.424;2023-03-01T22:23:58;1029.8;;;0.9;51.8
74437;BME280;62868;52.360;30.424;2023-03-01T22:28:22;1029.7;;;1;51.9
74437;BME280;62868;52.360;30.424;2023-03-01T22:33:58;1029.7;;;1;51.9
74437;BME280;62868;52.360;30.424;2023-03-01T22:38:58;1029.7;;;1;52
74437;BME280;62868;52.360;30.424;2023-03-01T22:44:10;1029.6;;;1;52
74437;BME280;62868;52.360;30.424;2023-03-01T22:48:46;1029.5;;;1.1;52.1
74437;BME280;62868;52.360;30.424;2023-03-01T22:53:22;1029.5;;;1.1;52.2
74437;BME280;62868;52.360;30.424;2023-03-01T22:58:44;1029.4;;;1.1;52.2
74437;BME280;62868;52.360;30.424;2023-03-01T23:03:46;1029.3;;;1.2;52.2
74437;BME280;62868;52.360;30.424;2023-03-01T23:09:12;1029.3;;;1.3;52.3
74437;BME280;62868;52.360;30.424;2023-03-01T23:13:34;1029.3;;;1.3;52.3
74437;BME280;62868;52.360;30.424;2023-03-01T23:18:22;1029.3;;;1.4;52.3
74437;BME280;62868;52.360;30.424;2023-03-01T23:23:34;1029.2;;;1.5;52.3
74437;BME280;62868;52.360;30.424;2023-03-01T23:28:58;1029.2;;;1.6;52.4
74437;BME280;62868;52.360;30.424;2023-03-01T23:34:12;1029.1;;;1.7;52.4
74437;BME280;62868;52.360;30.424;2023-03-01T23:38:34;1029.2;;;1.7;52.5
74437;BME280;62868;52.360;30.424;2023-03-01T23:43:22;1029.2;;;1.8;52.6
74437;BME280;62868;52.360;30.424;2023-03-01T23:48:44;1029.3;;;1.8;52.7
74437;BME280;62868;52.360;30.424;2023-03-01T23:53:59;1029.3;;;1.8;52.7
74437;BME280;62868;52.360;30.424;2023-03-01T23:59:14;1029.2;;;1.7;52.9
